Time;durP1;ratioP1;P1;durP2;ratioP2;P2;SDS_P1;SDS_P2;PMS_P1;PMS_P2;Temp;Humidity;BMP_temperature;BMP_pressure;BME280_temperature;BME280_humidity;BME280_pressure;Samples;Min_cycle;Max_cycle;Signal;HPM_P1;HPM_P2
2022/09/12 00:00:12;;;;;;;2.88;2.10;;;;;;;10.45;100.00;101036.94;5003382;28;20091;-85
2022/09/12 00:02:39;;;;;;;3.25;2.13;;;;;;;10.40;100.00;101033.50;4995291;28;20429;-83
2022/09/12 00:05:06;;;;;;;4.50;2.40;;;;;;;10.47;100.00;101031.63;5031762;28;20107;-84
2022/09/12 00:07:33;;;;;;;3.53;2.20;;;;;;;10.51;100.00;101030.69;4996337;28;20521;-83
2022/09/12 00:09:59;;;;;;;2.63;2.33;;;;;;;10.51;100.00;101033.34;5015518;28;20103;-85
2022/09/12 00:12:26;;;;;;;3.10;2.40;;;;;;;10.54;100.00;101023.59;5014643;28;20133;-84
2022/09/12 00:14:53;;;;;;;3.90;2.70;;;;;;;10.60;100.00;101028.81;5016167;28;20087;-83
2022/09/12 00:17:19;;;;;;;3.15;2.17;;;;;;;10.53;100.00;101021.88;4999070;28;20088;-83
2022/09/12 00:19:46;;;;;;;3.97;2.42;;;;;;;10.65;100.00;101023.44;5017859;28;20491;-84
2022/09/12 00:22:13;;;;;;;3.40;2.33;;;;;;;10.60;100.00;101027.94;5016207;28;20049;-83
2022/09/12 00:24:39;;;;;;;3.95;2.30;;;;;;;10.53;100.00;101021.00;5004009;28;20080;-83
2022/09/12 00:27:06;;;;;;;4.50;2.40;;;;;;;10.51;100.00;101020.13;4986311;28;20380;-84
2022/09/12 00:29:33;;;;;;;2.97;2.10;;;;;;;10.42;100.00;101023.78;4995592;28;20048;-84
2022/09/12 00:32:00;;;;;;;2.88;2.20;;;;;;;10.41;100.00;101017.63;4995275;28;20037;-84
2022/09/12 00:34:26;;;;;;;2.55;2.25;;;;;;;10.43;100.00;101021.13;5012882;28;20541;-84
2022/09/12 00:36:53;;;;;;;2.72;2.22;;;;;;;10.36;100.00;101018.59;5025244;28;20517;-84
2022/09/12 00:39:20;;;;;;;2.50;2.20;;;;;;;10.32;100.00;101024.78;5000468;28;20049;-84
2022/09/12 00:41:46;;;;;;;2.97;2.15;;;;;;;10.30;100.00;101014.25;4999345;28;20034;-85
2022/09/12 00:44:22;;;;;;;2.45;2.20;;;;;;;10.27;100.00;101008.16;5016128;28;20049;-84
2022/09/12 00:46:57;;;;;;;2.47;2.20;;;;;;;10.27;100.00;101009.03;5030958;28;20037;-84
2022/09/12 00:49:28;;;;;;;3.53;2.30;;;;;;;10.29;100.00;101011.66;5015518;28;20045;-83
2022/09/12 00:52:11;;;;;;;2.78;2.53;;;;;;;10.24;100.00;101009.06;5015715;28;20049;-83
2022/09/12 00:54:42;;;;;;;3.13;2.42;;;;;;;10.27;100.00;101013.44;5014494;28;20068;-84
2022/09/12 00:57:10;;;;;;;3.60;2.55;;;;;;;10.24;100.00;101016.09;5014510;28;20176;-84
2022/09/12 00:59:41;;;;;;;3.85;2.33;;;;;;;10.25;100.00;101013.44;4997919;28;20053;-84
2022/09/12 01:02:07;;;;;;;2.95;2.28;;;;;;;10.25;100.00;101012.56;5030945;28;20472;-84
2022/09/12 01:04:36;;;;;;;4.25;2.55;;;;;;;10.21;100.00;101008.19;5017456;28;20049;-85
2022/09/12 01:07:03;;;;;;;4.10;2.25;;;;;;;10.17;100.00;101012.63;5020135;28;20045;-85
2022/09/12 01:09:30;;;;;;;2.80;2.50;;;;;;;10.15;100.00;101015.28;5004926;28;20049;-85
2022/09/12 01:11:56;;;;;;;2.45;2.03;;;;;;;10.16;100.00;101006.47;4998607;28;20041;-85
2022/09/12 01:14:23;;;;;;;4.13;2.30;;;;;;;10.17;100.00;101010.00;5018302;28;20037;-83
2022/09/12 01:16:50;;;;;;;3.47;1.83;;;;;;;10.18;100.00;101003.84;4999590;28;20065;-85
2022/09/12 01:19:53;;;;;;;2.30;2.00;;;;;;;10.17;100.00;100996.78;5016018;28;20462;-85
2022/09/12 01:22:33;;;;;;;3.00;2.13;;;;;;;10.16;100.00;100997.69;5006094;28;20072;-83
2022/09/12 01:25:07;;;;;;;2.75;2.42;;;;;;;10.11;100.00;101003.03;4997503;28;20044;-83
2022/09/12 01:27:56;;;;;;;2.40;2.03;;;;;;;10.10;100.00;101006.59;4991516;28;20779;-83
2022/09/12 01:30:44;;;;;;;2.78;2.10;;;;;;;10.10;100.00;101000.44;5022768;28;20079;-83
2022/09/12 01:33:32;;;;;;;4.47;3.08;;;;;;;10.19;100.00;101004.72;5014760;28;20052;-83
2022/09/12 01:36:24;;;;;;;4.07;2.30;;;;;;;10.22;100.00;101004.66;5010993;28;20099;-82
2022/09/12 01:39:13;;;;;;;3.22;2.50;;;;;;;10.21;100.00;101000.28;4996115;28;20052;-82
2022/09/12 01:41:53;;;;;;;2.85;2.53;;;;;;;10.19;100.00;101004.72;4994616;28;20422;-83
2022/09/12 01:44:29;;;;;;;3.47;2.10;;;;;;;10.20;100.00;100998.53;4991899;28;20688;-83
2022/09/12 01:47:02;;;;;;;2.80;2.50;;;;;;;10.20;100.00;100995.91;5009653;28;20037;-82
2022/09/12 01:49:33;;;;;;;3.42;2.50;;;;;;;10.26;100.00;100995.84;5002985;28;20041;-81
2022/09/12 01:52:06;;;;;;;3.97;2.25;;;;;;;10.32;100.00;100988.69;4998146;28;20525;-83
2022/09/12 01:54:54;;;;;;;5.93;2.30;;;;;;;10.29;100.00;100994.03;5009208;28;20037;-83
2022/09/12 01:57:27;;;;;;;10.13;2.85;;;;;;;10.28;100.00;100987.00;5011078;28;20041;-83
2022/09/12 01:59:59;;;;;;;2.78;2.50;;;;;;;10.23;100.00;100988.81;5030034;28;20488;-83
2022/09/12 02:02:38;;;;;;;2.90;2.10;;;;;;;10.20;100.00;100998.53;5010357;28;20037;-82
2022/09/12 02:05:09;;;;;;;2.60;2.30;;;;;;;10.15;100.00;100993.31;4995651;28;20536;-82
2022/09/12 02:07:39;;;;;;;3.75;2.20;;;;;;;10.09;100.00;100991.63;5014128;28;20033;-82
2022/09/12 02:10:16;;;;;;;2.35;1.95;;;;;;;10.05;100.00;100994.31;4999905;28;20454;-83
2022/09/12 02:12:52;;;;;;;4.63;2.50;;;;;;;10.04;100.00;100989.94;4997424;28;20653;-84
2022/09/12 02:15:22;;;;;;;3.15;2.50;;;;;;;10.05;100.00;100984.63;4995298;28;20076;-84
2022/09/12 02:17:51;;;;;;;3.45;2.30;;;;;;;10.02;100.00;100991.75;5041218;28;20457;-80
2022/09/12 02:20:36;;;;;;;2.65;2.30;;;;;;;10.06;100.00;100989.03;4993959;28;20046;-80
2022/09/12 02:23:22;;;;;;;4.78;2.95;;;;;;;10.04;100.00;100988.16;5016324;28;20045;-82
2022/09/12 02:25:52;;;;;;;4.88;2.50;;;;;;;10.01;100.00;100985.59;5022396;28;20533;-83
2022/09/12 02:28:24;;;;;;;2.60;2.40;;;;;;;9.97;100.00;100988.28;4998517;28;20424;-81
2022/09/12 02:31:12;;;;;;;3.67;2.53;;;;;;;10.01;100.00;100976.78;4995179;28;20041;-82
2022/09/12 02:34:04;;;;;;;4.47;2.40;;;;;;;10.02;100.00;100983.81;4998801;28;20038;-82
2022/09/12 02:37:04;;;;;;;5.28;2.47;;;;;;;10.00;100.00;100985.56;5024704;28;20453;-82
2022/09/12 02:39:31;;;;;;;2.92;2.20;;;;;;;9.95;100.00;100985.66;4995890;28;20561;-82
2022/09/12 02:41:59;;;;;;;2.85;2.17;;;;;;;9.96;100.00;100984.75;4990550;28;20045;-82
2022/09/12 02:44:27;;;;;;;3.83;2.60;;;;;;;9.92;100.00;100990.09;5009471;28;20099;-82
2022/09/12 02:46:57;;;;;;;4.07;2.40;;;;;;;9.95;100.00;100995.34;5013199;28;20072;-82
2022/09/12 02:49:23;;;;;;;2.80;2.40;;;;;;;9.97;100.00;100996.19;5010941;28;20474;-81
2022/09/12 02:51:50;;;;;;;3.33;2.40;;;;;;;10.01;100.00;100996.16;5027601;28;20041;-83
2022/09/12 02:54:18;;;;;;;3.60;2.50;;;;;;;10.02;100.00;100992.59;5009894;28;20486;-81
2022/09/12 02:56:45;;;;;;;2.80;2.40;;;;;;;10.04;100.00;100987.31;4996291;28;20084;-82
2022/09/12 02:59:15;;;;;;;3.22;2.25;;;;;;;10.10;100.00;100987.22;5015258;28;20107;-81
2022/09/12 03:02:13;;;;;;;8.77;3.20;;;;;;;10.15;100.00;100988.03;5002198;28;20041;-82
2022/09/12 03:04:50;;;;;;;5.03;3.08;;;;;;;10.20;100.00;100980.94;5039528;28;20038;-81
2022/09/12 03:07:29;;;;;;;3.58;2.90;;;;;;;10.23;100.00;100983.53;5009400;28;20042;-82
2022/09/12 03:10:08;;;;;;;4.18;3.17;;;;;;;10.28;100.00;100979.09;5029614;28;20504;-81
2022/09/12 03:13:01;;;;;;;3.55;2.88;;;;;;;10.35;100.00;100979.88;5020072;28;20064;-82
2022/09/12 03:15:44;;;;;;;3.58;2.95;;;;;;;10.35;100.00;100980.75;5030003;28;20088;-82
2022/09/12 03:18:31;;;;;;;4.45;3.33;;;;;;;10.38;100.00;100983.34;5015375;28;20033;-83
2022/09/12 03:21:06;;;;;;;4.10;2.80;;;;;;;10.28;100.00;100983.50;4998016;28;20060;-82
2022/09/12 03:24:17;;;;;;;3.78;2.97;;;;;;;10.34;100.00;100984.28;5025832;28;20458;-81
2022/09/12 03:26:49;;;;;;;4.53;3.05;;;;;;;10.37;100.00;100988.66;4968353;28;20042;-81
2022/09/12 03:29:17;;;;;;;4.38;3.42;;;;;;;10.27;100.00;100992.31;5007927;28;20103;-82
2022/09/12 03:31:51;;;;;;;4.13;2.78;;;;;;;10.28;100.00;100996.69;4996065;28;20049;-84
2022/09/12 03:34:19;;;;;;;4.10;3.03;;;;;;;10.21;100.00;100992.34;4995105;28;20129;-83
2022/09/12 03:36:46;;;;;;;4.28;2.60;;;;;;;10.23;100.00;100982.69;5012136;28;20041;-82
2022/09/12 03:39:12;;;;;;;3.03;2.47;;;;;;;10.19;100.00;100986.22;4994673;28;20450;-83
2022/09/12 03:41:39;;;;;;;5.05;2.88;;;;;;;10.16;100.00;100987.13;4996214;28;20099;-83
2022/09/12 03:44:06;;;;;;;2.33;2.08;;;;;;;10.18;100.00;100987.13;5017359;28;20048;-82
2022/09/12 03:46:33;;;;;;;4.82;2.55;;;;;;;10.17;100.00;100978.31;4996781;28;20049;-82
2022/09/12 03:49:00;;;;;;;3.50;2.20;;;;;;;10.22;100.00;100991.47;5036703;28;20411;-82
2022/09/12 03:51:27;;;;;;;7.82;2.72;;;;;;;10.20;100.00;100993.25;5013978;28;20041;-82
2022/09/12 03:53:54;;;;;;;3.47;2.33;;;;;;;10.21;100.00;100990.59;5013455;28;20122;-82
2022/09/12 03:56:21;;;;;;;4.13;2.60;;;;;;;10.17;100.00;101002.06;4995153;28;20095;-82
2022/09/12 03:58:47;;;;;;;3.78;2.63;;;;;;;10.19;100.00;101010.00;4998291;28;20041;-83
2022/09/12 04:01:17;;;;;;;4.40;2.92;;;;;;;10.23;100.00;100999.38;4994757;28;20045;-83
2022/09/12 04:03:46;;;;;;;4.90;3.47;;;;;;;10.27;100.00;100992.31;5012790;28;20041;-83
2022/09/12 04:06:15;;;;;;;5.10;3.75;;;;;;;10.33;100.00;100989.56;5015140;28;20049;-83
2022/09/12 04:08:42;;;;;;;7.43;4.32;;;;;;;10.53;100.00;101000.72;5000547;28;20037;-83
2022/09/12 04:11:13;;;;;;;8.63;4.20;;;;;;;10.50;100.00;100995.47;4985819;28;20411;-83
2022/09/12 04:13:42;;;;;;;7.72;3.60;;;;;;;10.45;100.00;100999.09;5013197;23;20040;-85
2022/09/12 04:16:10;;;;;;;6.18;3.63;;;;;;;10.46;100.00;101004.34;4995468;28;20034;-85
2022/09/12 04:18:37;;;;;;;4.15;3.00;;;;;;;10.49;100.00;101003.44;4992239;28;20641;-85
2022/09/12 04:21:05;;;;;;;5.40;3.63;;;;;;;10.54;100.00;101010.41;4990411;28;20041;-86
2022/09/12 04:23:32;;;;;;;4.88;3.58;;;;;;;10.54;100.00;101002.47;4998748;28;20068;-85
2022/09/12 04:26:01;;;;;;;5.60;3.55;;;;;;;10.54;100.00;101006.88;5009891;28;20415;-85
2022/09/12 04:28:28;;;;;;;4.25;3.28;;;;;;;10.46;100.00;100998.19;4976984;28;20517;-85
2022/09/12 04:30:55;;;;;;;4.72;3.85;;;;;;;10.48;100.00;100996.41;4993189;28;20045;-85
2022/09/12 04:33:22;;;;;;;4.65;3.30;;;;;;;10.46;100.00;100998.19;5009382;28;20048;-85
2022/09/12 04:35:49;;;;;;;5.03;3.17;;;;;;;10.41;100.00;101004.41;4983389;28;20075;-85
2022/09/12 04:38:15;;;;;;;5.88;3.53;;;;;;;10.40;100.00;101004.44;5009828;28;20529;-85
2022/09/12 04:40:42;;;;;;;5.75;3.65;;;;;;;10.40;100.00;101002.66;4972783;28;20415;-86
2022/09/12 04:43:09;;;;;;;5.43;3.47;;;;;;;10.41;100.00;101001.75;5009623;28;20042;-85
2022/09/12 04:45:40;;;;;;;5.97;3.85;;;;;;;10.47;100.00;100999.94;4989981;28;20054;-86
2022/09/12 04:48:06;;;;;;;6.13;3.83;;;;;;;10.50;100.00;101000.75;5009273;28;20049;-86
2022/09/12 04:50:33;;;;;;;5.00;3.70;;;;;;;10.56;100.00;101005.97;4975536;28;20108;-86
2022/09/12 04:53:00;;;;;;;5.15;3.50;;;;;;;10.56;100.00;101002.44;4993509;28;20053;-86
2022/09/12 04:55:27;;;;;;;5.43;4.22;;;;;;;10.56;100.00;101003.31;5007869;28;20081;-89
2022/09/12 04:57:53;;;;;;;9.50;4.43;;;;;;;10.60;100.00;101007.69;4988958;28;20527;-85
2022/09/12 05:00:20;;;;;;;6.95;4.43;;;;;;;10.61;100.00;101003.25;5022152;28;20046;-86
2022/09/12 05:02:47;;;;;;;5.68;4.20;;;;;;;10.67;100.00;101005.78;4993399;28;20042;-85
2022/09/12 05:05:13;;;;;;;6.75;3.67;;;;;;;10.71;100.00;101010.16;4977446;28;20057;-85
2022/09/12 05:07:40;;;;;;;5.18;3.65;;;;;;;10.78;100.00;101013.56;4992419;28;20050;-84
2022/09/12 05:10:07;;;;;;;5.22;3.92;;;;;;;10.77;100.00;101018.00;4978054;28;20053;-85
2022/09/12 05:12:35;;;;;;;4.80;3.38;;;;;;;10.79;100.00;101021.47;5024865;28;20050;-85
2022/09/12 05:15:02;;;;;;;5.80;3.50;;;;;;;10.87;100.00;101021.34;4992864;28;20092;-87
2022/09/12 05:17:29;;;;;;;4.72;3.53;;;;;;;10.87;100.00;101019.59;4975374;28;20038;-86
2022/09/12 05:19:55;;;;;;;5.68;3.60;;;;;;;10.97;100.00;101022.94;4992008;28;20053;-87
2022/09/12 05:22:22;;;;;;;5.88;4.22;;;;;;;10.98;100.00;101016.75;4968197;28;20088;-85
2022/09/12 05:24:48;;;;;;;5.88;3.88;;;;;;;11.04;100.00;101023.72;5008739;28;20042;-86
2022/09/12 05:27:16;;;;;;;4.70;4.03;;;;;;;11.11;100.00;101020.97;4995176;28;20056;-84
2022/09/12 05:29:43;;;;;;;6.57;4.90;;;;;;;11.16;100.00;101016.44;5006577;28;20045;-85
2022/09/12 05:32:11;;;;;;;5.90;4.47;;;;;;;11.18;100.00;101016.41;5007669;28;20376;-85
2022/09/12 05:34:39;;;;;;;7.97;4.82;;;;;;;11.26;100.00;101020.66;5011909;28;20037;-84
2022/09/12 05:37:05;;;;;;;7.97;5.43;;;;;;;11.31;100.00;101017.09;4994006;28;20120;-85
2022/09/12 05:39:32;;;;;;;8.80;4.90;;;;;;;11.36;100.00;101024.06;4972128;28;20041;-86
2022/09/12 05:41:59;;;;;;;7.00;4.50;;;;;;;11.41;100.00;101029.25;4996026;28;20062;-85
2022/09/12 05:44:25;;;;;;;6.55;4.10;;;;;;;11.42;100.00;101033.63;5002619;28;20045;-86
2022/09/12 05:46:52;;;;;;;8.10;4.55;;;;;;;11.41;100.00;101034.53;4996250;28;20407;-86
2022/09/12 05:49:20;;;;;;;7.47;4.63;;;;;;;11.46;100.00;101030.91;4993286;28;20086;-85
2022/09/12 05:51:47;;;;;;;13.50;4.85;;;;;;;11.50;100.00;101037.00;4995570;28;20038;-86
2022/09/12 05:54:16;;;;;;;5.82;3.72;;;;;;;11.50;100.00;101039.66;4993226;28;20760;-86
2022/09/12 05:56:43;;;;;;;8.75;5.18;;;;;;;11.66;100.00;101041.13;5007537;28;20037;-85
2022/09/12 05:59:13;;;;;;;5.80;4.00;;;;;;;11.69;100.00;101038.44;4992823;28;20092;-85
2022/09/12 06:01:40;;;;;;;7.75;4.05;;;;;;;11.62;100.00;101038.56;4994263;28;20046;-86
2022/09/12 06:04:07;;;;;;;9.25;4.78;;;;;;;11.62;100.00;101042.09;4987886;28;20034;-87
2022/09/12 06:06:37;;;;;;;5.03;3.65;;;;;;;11.69;100.00;101046.38;5006858;28;20050;-86
2022/09/12 06:09:04;;;;;;;5.75;4.13;;;;;;;11.73;100.00;101042.75;5009123;28;20427;-87
2022/09/12 06:11:33;;;;;;;6.03;4.63;;;;;;;11.79;100.00;101044.41;4977222;28;20483;-87
2022/09/12 06:14:00;;;;;;;6.03;4.38;;;;;;;11.95;100.00;101045.03;5010731;28;20053;-88
2022/09/12 06:16:29;;;;;;;6.28;4.10;;;;;;;12.08;100.00;101046.50;4994535;28;20041;-86
2022/09/12 06:19:01;;;;;;;7.55;4.70;;;;;;;12.20;100.00;101040.97;5006983;28;20052;-86
2022/09/12 06:21:30;;;;;;;7.03;3.88;;;;;;;12.28;100.00;101046.97;4994519;28;20056;-86
2022/09/12 06:24:00;;;;;;;6.15;3.97;;;;;;;12.39;100.00;101047.63;4996102;28;20062;-86
2022/09/12 06:26:28;;;;;;;6.47;3.92;;;;;;;12.47;100.00;101043.94;4994253;28;20048;-86
2022/09/12 06:28:56;;;;;;;6.07;4.10;;;;;;;12.56;100.00;101046.38;5015791;28;20038;-87
2022/09/12 06:31:28;;;;;;;5.53;3.85;;;;;;;12.62;100.00;101052.41;4979320;28;20046;-87
2022/09/12 06:33:58;;;;;;;7.20;4.63;;;;;;;12.59;100.00;101047.16;5012541;28;20049;-86
2022/09/12 06:36:27;;;;;;;6.95;4.72;;;;;;;12.84;100.00;101047.47;4989657;28;20503;-86
2022/09/12 06:38:59;;;;;;;6.15;4.00;;;;;;;12.99;100.00;101051.53;4979377;28;20686;-86
2022/09/12 06:41:27;;;;;;;6.15;4.13;;;;;;;13.10;100.00;101048.63;4994540;28;20749;-86
2022/09/12 06:43:54;;;;;;;7.20;4.57;;;;;;;13.12;100.00;101053.00;5012067;28;20046;-86
2022/09/12 06:46:21;;;;;;;6.95;4.00;;;;;;;13.08;100.00;101055.75;4993857;28;20050;-87
2022/09/12 06:48:49;;;;;;;5.20;3.97;;;;;;;13.09;100.00;101055.72;4998293;28;20041;-87
2022/09/12 06:51:18;;;;;;;7.30;4.70;;;;;;;13.32;100.00;101049.88;4994108;28;20140;-86
2022/09/12 06:53:46;;;;;;;5.75;4.75;;;;;;;13.51;100.00;101056.44;4995460;28;20104;-86
2022/09/12 06:56:15;;;;;;;5.63;4.30;;;;;;;13.62;100.00;101055.28;4993189;28;20056;-86
2022/09/12 06:58:42;;;;;;;6.65;5.10;;;;;;;13.73;100.00;101055.88;4992547;28;20061;-86
2022/09/12 07:01:21;;;;;;;9.93;5.70;;;;;;;13.55;100.00;101045.75;4990730;28;20460;-86
2022/09/12 07:03:50;;;;;;;6.15;4.90;;;;;;;13.46;100.00;101057.50;5007170;28;20489;-87
2022/09/12 07:06:19;;;;;;;6.80;4.75;;;;;;;13.63;100.00;101049.06;5022491;28;20477;-86
2022/09/12 07:08:46;;;;;;;5.70;4.30;;;;;;;13.82;100.00;101052.09;4999575;28;20048;-84
2022/09/12 07:11:24;;;;;;;5.63;3.75;;;;;;;14.10;100.00;101045.06;4994079;28;20081;-86
2022/09/12 07:13:53;;;;;;;6.10;4.80;;;;;;;14.34;100.00;101051.47;4994575;28;20042;-86
2022/09/12 07:16:21;;;;;;;5.90;4.50;;;;;;;14.51;100.00;101046.53;5004410;28;20041;-86
2022/09/12 07:18:53;;;;;;;6.28;4.00;;;;;;;14.43;100.00;101045.00;4994347;28;20048;-87
2022/09/12 07:21:20;;;;;;;5.38;3.88;;;;;;;14.58;100.00;101050.75;4993344;28;20045;-86
2022/09/12 07:23:48;;;;;;;4.82;3.90;;;;;;;14.39;100.00;101046.03;4994923;28;20103;-86
2022/09/12 07:26:15;;;;;;;5.05;3.85;;;;;;;14.47;100.00;101050.22;5008376;28;20746;-86
2022/09/12 07:28:42;;;;;;;5.15;4.30;;;;;;;14.79;100.00;101051.88;4995568;28;20472;-87
2022/09/12 07:31:15;;;;;;;4.68;3.80;;;;;;;14.87;100.00;101051.63;4992939;28;20042;-86
2022/09/12 07:33:42;;;;;;;4.63;3.37;;;;;;;14.94;100.00;101042.53;5011121;28;20483;-86
2022/09/12 07:36:15;;;;;;;4.95;4.25;;;;;;;15.10;100.00;101051.75;4976575;28;20292;-86
2022/09/12 07:38:42;;;;;;;4.95;4.00;;;;;;;15.08;100.00;101045.63;4994150;28;20088;-85
2022/09/12 07:41:10;;;;;;;5.50;3.60;;;;;;;15.08;100.00;101056.28;4991061;28;20100;-87
2022/09/12 07:43:37;;;;;;;5.97;3.70;;;;;;;15.13;100.00;101054.34;5007545;28;20042;-87
2022/09/12 07:46:04;;;;;;;5.45;3.65;;;;;;;15.11;100.00;101057.94;4992157;28;20040;-86
2022/09/12 07:48:31;;;;;;;5.43;3.70;;;;;;;14.97;100.00;101050.44;4993044;28;20034;-87
2022/09/12 07:50:59;;;;;;;4.85;3.95;;;;;;;15.01;100.00;101056.50;5009134;28;20140;-86
2022/09/12 07:53:30;;;;;;;5.18;4.03;;;;;;;15.09;100.00;101055.34;4993875;28;20107;-86
2022/09/12 07:55:57;;;;;;;5.40;4.50;;;;;;;15.26;100.00;101056.59;4991064;28;20042;-86
2022/09/12 07:58:24;;;;;;;5.40;3.92;;;;;;;14.87;100.00;101056.94;4993551;28;20490;-85
2022/09/12 08:00:51;;;;;;;4.30;3.75;;;;;;;14.95;100.00;101056.72;5005765;28;20042;-86
2022/09/12 08:03:18;;;;;;;4.95;3.30;;;;;;;14.92;100.00;101060.34;4993792;28;20091;-86
2022/09/12 08:05:45;;;;;;;4.28;3.35;;;;;;;15.01;100.00;101056.50;5012024;28;21025;-83
2022/09/12 08:08:12;;;;;;;4.88;3.13;;;;;;;15.09;100.00;101060.66;5021418;28;20041;-86
2022/09/12 08:10:38;;;;;;;4.50;3.22;;;;;;;14.99;100.00;101059.22;4988905;28;20046;-86
2022/09/12 08:13:06;;;;;;;3.22;2.90;;;;;;;15.11;100.00;101064.13;4989031;28;20046;-86
2022/09/12 08:15:36;;;;;;;3.00;2.70;;;;;;;15.27;100.00;101064.50;4977301;28;20072;-85
2022/09/12 08:18:03;;;;;;;3.15;2.72;;;;;;;15.04;100.00;101065.25;4994049;28;20041;-86
2022/09/12 08:20:29;;;;;;;3.40;2.70;;;;;;;15.06;100.00;101060.78;4993665;28;20044;-87
2022/09/12 08:22:56;;;;;;;3.42;2.17;;;;;;;14.86;100.00;101055.22;4979541;28;20126;-85
2022/09/12 08:25:23;;;;;;;3.63;2.92;;;;;;;15.19;100.00;101053.25;4996804;28;20471;-85
2022/09/12 08:27:50;;;;;;;2.90;2.10;;;;;;;15.31;100.00;101063.50;4993571;28;20041;-85
2022/09/12 08:30:16;;;;;;;3.90;2.33;;;;;;;15.45;100.00;101057.69;4979332;28;20045;-84
2022/09/12 08:32:43;;;;;;;2.30;2.00;;;;;;;15.60;100.00;101064.28;4993254;28;20467;-84
2022/09/12 08:35:10;;;;;;;2.92;2.10;;;;;;;15.86;100.00;101058.06;4977815;28;20041;-85
2022/09/12 08:37:37;;;;;;;2.28;2.00;;;;;;;15.83;100.00;101068.84;4993066;28;20049;-84
2022/09/12 08:40:07;;;;;;;3.50;2.15;;;;;;;16.03;100.00;101066.31;4994476;28;20468;-84
2022/09/12 08:42:49;;;;;;;2.80;2.28;;;;;;;16.10;100.00;101078.50;4993852;28;20392;-84
2022/09/12 08:45:32;;;;;;;2.20;1.90;;;;;;;16.20;100.00;101063.03;4990273;28;20097;-85
2022/09/12 08:48:02;;;;;;;3.20;2.00;;;;;;;16.29;100.00;101063.56;4974125;28;20050;-84
2022/09/12 08:50:29;;;;;;;2.20;2.00;;;;;;;16.47;100.00;101055.78;4997647;28;20041;-85
2022/09/12 08:53:02;;;;;;;3.05;2.15;;;;;;;16.75;100.00;101063.63;5011403;28;20069;-85
2022/09/12 08:55:39;;;;;;;2.83;2.50;;;;;;;16.80;100.00;101059.81;4976964;28;20614;-85
2022/09/12 08:58:12;;;;;;;2.95;2.20;;;;;;;17.10;100.00;101063.06;5009979;28;20407;-84
2022/09/12 09:01:17;;;;;;;2.60;2.40;;;;;;;17.42;100.00;101052.84;5008311;28;20073;-87
2022/09/12 09:03:53;;;;;;;2.33;2.00;;;;;;;17.49;100.00;101051.66;5030622;28;20052;-84
2022/09/12 09:07:00;;;;;;;2.80;2.20;;;;;;;17.80;100.00;101053.88;5012320;28;20042;-85
2022/09/12 09:09:41;;;;;;;2.75;2.40;;;;;;;17.90;100.00;101049.00;5010968;28;20092;-86
2022/09/12 09:12:42;;;;;;;2.53;1.95;;;;;;;18.25;100.00;101042.06;5011711;28;20061;-83
2022/09/12 09:15:25;;;;;;;2.17;1.98;;;;;;;18.57;100.00;101049.44;5003936;28;20100;-83
2022/09/12 09:17:59;;;;;;;2.78;2.20;;;;;;;18.77;98.02;101047.66;5009694;28;20046;-83
2022/09/12 09:20:32;;;;;;;1.85;1.63;;;;;;;19.01;93.77;101049.13;5013577;28;20049;-84
2022/09/12 09:23:34;;;;;;;1.55;1.45;;;;;;;19.25;92.51;101054.19;4994582;28;20484;-83
2022/09/12 09:26:15;;;;;;;4.63;2.00;;;;;;;19.41;81.66;101045.31;4931878;29;20048;-83
2022/09/12 09:28:51;;;;;;;2.30;1.77;;;;;;;19.61;85.77;101044.34;4990076;28;20053;-84
2022/09/12 09:31:23;;;;;;;2.13;1.90;;;;;;;19.64;82.74;101057.56;4979496;28;20054;-84
2022/09/12 09:33:54;;;;;;;2.05;1.70;;;;;;;19.87;86.51;101058.19;5013865;28;20450;-85
2022/09/12 09:36:21;;;;;;;2.83;1.80;;;;;;;20.22;86.00;101049.13;4995133;28;20069;-85
2022/09/12 09:38:49;;;;;;;1.70;1.60;;;;;;;19.99;81.15;101046.78;5029906;28;20488;-85
2022/09/12 09:41:23;;;;;;;1.98;1.75;;;;;;;20.40;82.09;101035.63;5011988;28;20052;-85
2022/09/12 09:43:50;;;;;;;3.80;1.55;;;;;;;20.66;81.55;101039.56;5030034;28;20071;-85
2022/09/12 09:46:17;;;;;;;2.15;1.40;;;;;;;20.66;77.21;101034.22;4980266;28;20046;-85
2022/09/12 09:48:47;;;;;;;1.50;1.40;;;;;;;20.39;74.41;101039.28;4998066;28;20046;-85
2022/09/12 09:51:16;;;;;;;1.40;1.30;;;;;;;20.72;72.94;101032.06;4992913;28;20451;-84
2022/09/12 09:53:53;;;;;;;1.67;1.40;;;;;;;20.90;71.44;101035.50;5012993;28;20050;-85
2022/09/12 09:56:33;;;;;;;1.75;1.27;;;;;;;20.41;70.39;101040.03;5011612;28;20042;-83
2022/09/12 09:59:25;;;;;;;1.48;1.30;;;;;;;20.62;69.50;101024.63;5013138;28;20035;-85
2022/09/12 10:01:56;;;;;;;1.58;1.40;;;;;;;20.47;73.77;101034.38;5000485;28;20049;-84
2022/09/12 10:04:31;;;;;;;1.30;1.20;;;;;;;20.72;72.40;101021.31;5024296;28;20069;-85
2022/09/12 10:07:00;;;;;;;1.25;1.15;;;;;;;20.94;70.79;101026.31;4979685;28;20054;-84
2022/09/12 10:09:31;;;;;;;1.25;1.15;;;;;;;20.67;69.64;101025.19;4996976;28;20487;-84
2022/09/12 10:12:03;;;;;;;2.80;1.20;;;;;;;20.64;67.54;101031.63;4979161;28;20053;-85
2022/09/12 10:14:38;;;;;;;0.95;0.95;;;;;;;21.14;67.28;101025.16;5012599;28;20049;-84
2022/09/12 10:17:27;;;;;;;1.10;1.00;;;;;;;21.21;63.14;101018.47;4990490;28;20048;-85
2022/09/12 10:20:00;;;;;;;1.20;1.10;;;;;;;21.22;66.79;101022.88;5012491;28;20038;-84
2022/09/12 10:22:47;;;;;;;1.30;1.20;;;;;;;21.30;63.79;101023.34;5000138;28;20046;-85
2022/09/12 10:25:17;;;;;;;1.17;1.08;;;;;;;21.30;64.82;101009.91;4997960;28;20462;-84
2022/09/12 10:27:57;;;;;;;1.10;1.00;;;;;;;21.56;63.16;101007.47;5013790;28;20107;-83
2022/09/12 10:30:27;;;;;;;1.55;1.10;;;;;;;21.62;66.58;101018.72;5093044;22;20060;-82
2022/09/12 10:33:05;;;;;;;1.50;1.40;;;;;;;21.44;60.75;101018.94;5015434;28;20052;-83
2022/09/12 10:35:42;;;;;;;1.10;1.00;;;;;;;21.28;59.97;101013.63;5012930;28;20099;-81
2022/09/12 10:38:19;;;;;;;1.05;0.95;;;;;;;21.29;57.93;101010.84;5030268;28;20037;-82
2022/09/12 10:40:54;;;;;;;1.00;1.00;;;;;;;21.37;59.22;101004.16;5026571;28;20096;-83
2022/09/12 10:43:24;;;;;;;1.17;1.00;;;;;;;21.45;61.87;101002.75;5019398;28;20095;-82
2022/09/12 10:45:51;;;;;;;1.35;1.25;;;;;;;20.94;63.13;101003.97;5035600;28;20041;-83
2022/09/12 10:48:30;;;;;;;1.05;1.05;;;;;;;21.09;66.52;101000.38;5037344;28;20205;-84
2022/09/12 10:51:00;;;;;;;1.75;1.17;;;;;;;21.66;64.65;101005.06;5030750;28;20110;-82
2022/09/12 10:53:39;;;;;;;1.20;1.00;;;;;;;21.54;57.82;100996.81;5033149;28;20071;-84
2022/09/12 10:56:34;;;;;;;1.80;1.20;;;;;;;21.37;59.67;100996.97;5006697;28;20406;-83
2022/09/12 10:59:22;;;;;;;1.20;0.88;;;;;;;21.76;61.44;100990.97;5028961;28;20049;-83
2022/09/12 11:01:59;;;;;;;1.25;1.00;;;;;;;22.08;59.75;100990.81;5029168;28;20553;-83
2022/09/12 11:04:48;;;;;;;1.30;1.20;;;;;;;22.18;56.25;100989.25;4998994;28;20041;-83
2022/09/12 11:07:40;;;;;;;1.13;0.93;;;;;;;22.18;57.65;100989.25;5028888;28;20037;-83
2022/09/12 11:10:25;;;;;;;0.98;0.95;;;;;;;22.21;55.54;100988.22;5032353;28;20028;-82
2022/09/12 11:12:58;;;;;;;0.95;0.90;;;;;;;21.76;57.47;100985.56;5054075;28;20047;-84
2022/09/12 11:15:50;;;;;;;1.90;1.17;;;;;;;21.27;56.76;100988.59;5037840;28;20037;-84
2022/09/12 11:18:35;;;;;;;1.10;1.00;;;;;;;21.66;57.57;100992.50;5039293;28;20053;-85
2022/09/12 11:21:37;;;;;;;1.02;0.90;;;;;;;21.67;55.14;100987.97;5033701;28;20045;-83
2022/09/12 11:24:23;;;;;;;1.77;1.10;;;;;;;21.38;56.10;100989.75;5004720;28;20049;-83
2022/09/12 11:27:19;;;;;;;1.60;1.02;;;;;;;21.69;56.81;100988.75;5012102;28;20045;-84
2022/09/12 11:29:53;;;;;;;0.93;0.90;;;;;;;21.99;58.43;100980.59;5043798;28;20045;-84
2022/09/12 11:32:45;;;;;;;1.30;1.20;;;;;;;22.19;52.49;100983.78;5016884;28;20052;-82
2022/09/12 11:35:15;;;;;;;1.20;1.10;;;;;;;22.05;53.93;100974.84;5011198;28;20042;-83
2022/09/12 11:38:11;;;;;;;0.85;0.85;;;;;;;22.25;57.53;100981.66;5025481;28;20487;-82
2022/09/12 11:40:49;;;;;;;1.15;1.00;;;;;;;22.19;55.07;100985.59;5005810;28;20521;-83
2022/09/12 11:43:41;;;;;;;1.35;1.20;;;;;;;22.05;54.70;100972.16;5030981;28;20096;-81